METAR Data
IDs: Format: Raw Decoded Include TAF

Data at: 1813 UTC 03 Jul 2020

METAR for:KDLZ (Delaware Muni, OH, US)
Text:KDLZ 031756Z AUTO 00000KT 10SM CLR 31/15 A3003 RMK AO2
Temperature: 31.0°C ( 88°F)
Dewpoint: 15.0°C ( 59°F) [RH = 38%]
Pressure (altimeter):30.03 inches Hg (1017.0 mb)
Winds:calm
Visibility:10 or more sm (16+ km)
Ceiling:at least 12,000 feet AGL
Clouds:sky clear below 12,000 feet AGL
QC Flag:automated observation with no human augmentation